Time;durP1;ratioP1;P1;durP2;ratioP2;P2;SDS_P1;SDS_P2;PMS_P1;PMS_P2;Temp;Humidity;BMP_temperature;BMP_pressure;BME280_temperature;BME280_humidity;BME280_pressure;Samples;Min_cycle;Max_cycle;Signal;HPM_P1;HPM_P2
2022/07/27 00:00:04;;;;;;;;;;;28.90;91.50;;;;;;5020804;28;19909;-58
2022/07/27 00:02:30;;;;;;;;;;;28.90;91.60;;;;;;5021277;28;19916;-52
2022/07/27 00:04:57;;;;;;;;;;;28.90;91.70;;;;;;5020731;28;20082;-54
2022/07/27 00:07:23;;;;;;;;;;;28.90;91.70;;;;;;5021290;28;19914;-53
2022/07/27 00:09:49;;;;;;;;;;;28.90;91.80;;;;;;5021318;28;19905;-54
2022/07/27 00:12:15;;;;;;;;;;;28.80;91.70;;;;;;5021793;28;19910;-60
2022/07/27 00:14:41;;;;;;;;;;;28.80;91.80;;;;;;5021482;28;19913;-52
2022/07/27 00:17:07;;;;;;;;;;;28.80;91.90;;;;;;5021511;28;20205;-56
2022/07/27 00:19:34;;;;;;;;;;;28.80;91.90;;;;;;5020659;28;19978;-55
2022/07/27 00:22:00;;;;;;;;;;;28.80;92.00;;;;;;5020857;28;20201;-54
2022/07/27 00:24:26;;;;;;;;;;;28.80;92.00;;;;;;5021806;28;19909;-59
2022/07/27 00:26:52;;;;;;;;;;;28.80;91.90;;;;;;5021374;28;19910;-59
2022/07/27 00:29:18;;;;;;;;;;;28.80;91.90;;;;;;5020345;28;19916;-53
2022/07/27 00:31:44;;;;;;;;;;;28.70;91.80;;;;;;5021367;28;20132;-53
2022/07/27 00:34:11;;;;;;;;;;;28.70;91.70;;;;;;5020953;28;19913;-55
2022/07/27 00:36:37;;;;;;;;;;;28.70;91.70;;;;;;5020940;28;19978;-56
2022/07/27 00:39:03;;;;;;;;;;;28.70;91.50;;;;;;5020702;28;20212;-53
2022/07/27 00:41:29;;;;;;;;;;;28.70;91.40;;;;;;5022003;28;19910;-52
2022/07/27 00:43:57;;;;;;;;;;;28.70;91.40;;;;;;5024503;28;19909;-56
2022/07/27 00:46:23;;;;;;;;;;;28.70;91.50;;;;;;5023033;28;19975;-54
2022/07/27 00:48:49;;;;;;;;;;;28.70;91.50;;;;;;5023777;28;20083;-56
2022/07/27 00:51:16;;;;;;;;;;;28.70;91.50;;;;;;5023828;28;19909;-53
2022/07/27 00:53:43;;;;;;;;;;;28.70;91.40;;;;;;5023607;28;19916;-54
2022/07/27 00:56:09;;;;;;;;;;;28.70;91.50;;;;;;5023918;28;19910;-57
2022/07/27 00:58:36;;;;;;;;;;;28.60;91.40;;;;;;5024052;28;19916;-51
2022/07/27 01:01:03;;;;;;;;;;;28.60;91.30;;;;;;5024141;28;19979;-53
2022/07/27 01:03:29;;;;;;;;;;;28.60;91.20;;;;;;5023876;28;19909;-55
2022/07/27 01:05:56;;;;;;;;;;;28.60;91.20;;;;;;5023827;28;19917;-57
2022/07/27 01:08:23;;;;;;;;;;;28.60;91.10;;;;;;5023548;28;19905;-57
2022/07/27 01:10:56;;;;;;;;;;;28.60;91.10;;;;;;5024189;28;19928;-53
2022/07/27 01:13:27;;;;;;;;;;;28.50;91.00;;;;;;5024552;28;19984;-51
2022/07/27 01:15:57;;;;;;;;;;;28.60;91.00;;;;;;5024542;28;20106;-61
2022/07/27 01:18:30;;;;;;;;;;;28.60;91.00;;;;;;5023951;28;20109;-53
2022/07/27 01:20:57;;;;;;;;;;;28.50;91.00;;;;;;5023284;28;19906;-53
2022/07/27 01:23:24;;;;;;;;;;;28.60;91.00;;;;;;5023709;28;20012;-51
2022/07/27 01:25:50;;;;;;;;;;;28.60;91.00;;;;;;5023552;28;20190;-51
2022/07/27 01:28:16;;;;;;;;;;;28.60;91.10;;;;;;5023256;28;19929;-54
2022/07/27 01:30:42;;;;;;;;;;;28.50;91.20;;;;;;5023563;28;20101;-56
2022/07/27 01:33:09;;;;;;;;;;;28.50;91.10;;;;;;5023302;28;19942;-57
2022/07/27 01:35:36;;;;;;;;;;;28.50;91.10;;;;;;5023409;28;19986;-55
2022/07/27 01:38:02;;;;;;;;;;;28.40;91.10;;;;;;5023759;28;19905;-54
2022/07/27 01:40:29;;;;;;;;;;;28.40;91.20;;;;;;5024184;28;19905;-52
2022/07/27 01:42:56;;;;;;;;;;;28.40;91.20;;;;;;5023818;28;19912;-56
2022/07/27 01:45:22;;;;;;;;;;;28.40;91.40;;;;;;5024251;28;20316;-61
2022/07/27 01:47:51;;;;;;;;;;;28.30;91.00;;;;;;5023378;28;19905;-51
2022/07/27 01:50:17;;;;;;;;;;;28.20;91.10;;;;;;5023027;28;19920;-58
2022/07/27 01:52:43;;;;;;;;;;;28.20;91.10;;;;;;5022365;28;20117;-51
2022/07/27 01:55:12;;;;;;;;;;;28.10;91.10;;;;;;5023872;28;20216;-52
2022/07/27 01:57:51;;;;;;;;;;;28.00;91.20;;;;;;5018185;28;20307;-56
2022/07/27 02:00:17;;;;;;;;;;;27.90;91.20;;;;;;5018814;28;19914;-53
2022/07/27 02:02:43;;;;;;;;;;;27.80;91.20;;;;;;5012221;28;19962;-51
2022/07/27 02:05:13;;;;;;;;;;;27.80;91.30;;;;;;5008950;28;19944;-50
2022/07/27 02:07:40;;;;;;;;;;;27.80;91.30;;;;;;5018427;28;19909;-53
2022/07/27 02:10:06;;;;;;;;;;;27.90;91.40;;;;;;5010138;28;19985;-51
2022/07/27 02:12:35;;;;;;;;;;;27.90;91.60;;;;;;5012313;28;19906;-52
2022/07/27 02:15:05;;;;;;;;;;;27.80;91.60;;;;;;5009434;28;19917;-50
2022/07/27 02:17:31;;;;;;;;;;;27.80;91.70;;;;;;5023105;28;19968;-56
2022/07/27 02:19:57;;;;;;;;;;;27.80;91.80;;;;;;5022881;28;19980;-53
2022/07/27 02:22:23;;;;;;;;;;;27.80;91.80;;;;;;5021565;28;19912;-51
2022/07/27 02:24:50;;;;;;;;;;;27.80;91.90;;;;;;5022509;28;19914;-53
2022/07/27 02:27:16;;;;;;;;;;;27.80;91.90;;;;;;5014121;28;19944;-56
2022/07/27 02:29:53;;;;;;;;;;;27.80;92.00;;;;;;5003710;28;19951;-57
2022/07/27 02:32:20;;;;;;;;;;;27.70;92.30;;;;;;5003826;28;19917;-54
2022/07/27 02:34:49;;;;;;;;;;;27.70;92.50;;;;;;5002490;28;19914;-54
2022/07/27 02:37:15;;;;;;;;;;;27.70;92.60;;;;;;5009066;28;19917;-52
2022/07/27 02:39:41;;;;;;;;;;;27.70;92.80;;;;;;5018086;28;19921;-49
2022/07/27 02:42:08;;;;;;;;;;;27.70;92.70;;;;;;5011321;28;19969;-47
2022/07/27 02:44:34;;;;;;;;;;;27.80;92.60;;;;;;5002795;28;19952;-48
2022/07/27 02:47:01;;;;;;;;;;;27.90;92.50;;;;;;5002508;28;20118;-53
2022/07/27 02:49:27;;;;;;;;;;;27.90;92.40;;;;;;5002556;28;19948;-51
2022/07/27 02:51:53;;;;;;;;;;;28.00;92.30;;;;;;5002214;28;19910;-52
2022/07/27 02:54:24;;;;;;;;;;;28.00;92.20;;;;;;5002529;28;19917;-51
2022/07/27 02:56:51;;;;;;;;;;;28.00;92.20;;;;;;5002274;28;19985;-49
2022/07/27 02:59:17;;;;;;;;;;;28.00;92.20;;;;;;5002778;28;19913;-46
2022/07/27 03:01:44;;;;;;;;;;;28.10;92.20;;;;;;5002321;28;19906;-47
2022/07/27 03:04:10;;;;;;;;;;;28.10;92.20;;;;;;5001965;28;19948;-47
2022/07/27 03:06:37;;;;;;;;;;;28.10;92.20;;;;;;5002476;28;19912;-56
2022/07/27 03:09:03;;;;;;;;;;;28.00;92.20;;;;;;5002346;28;19914;-48
2022/07/27 03:11:30;;;;;;;;;;;28.10;92.20;;;;;;5002054;28;19933;-46
2022/07/27 03:13:56;;;;;;;;;;;28.10;92.20;;;;;;5002417;28;20097;-47
2022/07/27 03:16:22;;;;;;;;;;;28.10;92.20;;;;;;5002392;28;19913;-48
2022/07/27 03:18:49;;;;;;;;;;;28.10;92.20;;;;;;5002237;28;19914;-50
2022/07/27 03:21:15;;;;;;;;;;;28.10;92.20;;;;;;5001052;28;19906;-48
2022/07/27 03:23:41;;;;;;;;;;;28.10;92.30;;;;;;5002402;28;19914;-47
2022/07/27 03:26:08;;;;;;;;;;;28.00;92.30;;;;;;5005939;28;19943;-47
2022/07/27 03:28:34;;;;;;;;;;;28.10;92.30;;;;;;5011669;28;19913;-50
2022/07/27 03:31:00;;;;;;;;;;;28.00;92.30;;;;;;5021773;28;19929;-50
2022/07/27 03:33:26;;;;;;;;;;;28.00;92.30;;;;;;5020338;28;20045;-45
2022/07/27 03:35:52;;;;;;;;;;;28.00;92.40;;;;;;5021464;28;19973;-53
2022/07/27 03:38:19;;;;;;;;;;;28.00;92.50;;;;;;5021575;28;19937;-48
2022/07/27 03:40:45;;;;;;;;;;;28.10;92.70;;;;;;5021623;28;19946;-47
2022/07/27 03:43:11;;;;;;;;;;;28.10;92.90;;;;;;5021421;28;20307;-45
2022/07/27 03:45:37;;;;;;;;;;;28.00;93.10;;;;;;5021484;28;20124;-46
2022/07/27 03:48:03;;;;;;;;;;;28.00;93.20;;;;;;5021502;28;19927;-46
2022/07/27 03:50:30;;;;;;;;;;;28.00;93.30;;;;;;5021362;28;19905;-47
2022/07/27 03:52:56;;;;;;;;;;;28.00;93.10;;;;;;5021189;28;19906;-46
2022/07/27 03:55:22;;;;;;;;;;;28.00;93.20;;;;;;5021105;28;19917;-52
2022/07/27 03:57:49;;;;;;;;;;;28.00;93.10;;;;;;5021223;28;19913;-47
2022/07/27 04:00:16;;;;;;;;;;;28.00;93.10;;;;;;5021073;28;20083;-48
2022/07/27 04:02:42;;;;;;;;;;;28.00;93.00;;;;;;5021090;28;19920;-47
2022/07/27 04:05:08;;;;;;;;;;;28.00;92.90;;;;;;5020775;28;19978;-50
2022/07/27 04:07:34;;;;;;;;;;;27.90;92.80;;;;;;5021119;28;20008;-46
2022/07/27 04:10:01;;;;;;;;;;;27.90;92.80;;;;;;5020092;28;19937;-48
2022/07/27 04:12:27;;;;;;;;;;;27.90;92.70;;;;;;5021158;28;19909;-45
2022/07/27 04:14:54;;;;;;;;;;;27.90;92.70;;;;;;5020831;28;19916;-49
2022/07/27 04:17:20;;;;;;;;;;;27.90;92.70;;;;;;5023019;28;20197;-51
2022/07/27 04:19:46;;;;;;;;;;;27.90;92.60;;;;;;5024328;28;19909;-49
2022/07/27 04:22:12;;;;;;;;;;;27.90;92.60;;;;;;5024991;28;19979;-45
2022/07/27 04:24:38;;;;;;;;;;;27.90;92.60;;;;;;5024238;28;19909;-52
2022/07/27 04:27:04;;;;;;;;;;;27.80;92.40;;;;;;5024422;28;19917;-48
2022/07/27 04:29:30;;;;;;;;;;;27.80;92.40;;;;;;5024055;28;20194;-48
2022/07/27 04:31:56;;;;;;;;;;;27.80;92.40;;;;;;5024951;28;20189;-49
2022/07/27 04:34:22;;;;;;;;;;;27.80;92.40;;;;;;5024133;28;19914;-45
2022/07/27 04:36:49;;;;;;;;;;;27.80;92.40;;;;;;5024604;28;19939;-54
2022/07/27 04:39:15;;;;;;;;;;;27.80;92.40;;;;;;5024079;28;19909;-50
2022/07/27 04:41:41;;;;;;;;;;;27.80;92.40;;;;;;5024643;28;19910;-47
2022/07/27 04:44:07;;;;;;;;;;;27.80;92.40;;;;;;5023953;28;19976;-54
2022/07/27 04:46:33;;;;;;;;;;;27.80;92.40;;;;;;5024546;28;20089;-52
2022/07/27 04:49:00;;;;;;;;;;;27.70;92.40;;;;;;5023845;28;20117;-51
2022/07/27 04:51:26;;;;;;;;;;;27.70;92.30;;;;;;5024283;28;20071;-50
2022/07/27 04:53:52;;;;;;;;;;;27.70;92.30;;;;;;5023827;28;19945;-57
2022/07/27 04:56:18;;;;;;;;;;;27.70;92.40;;;;;;5024365;28;19913;-50
2022/07/27 04:58:44;;;;;;;;;;;27.70;92.40;;;;;;5023709;28;19977;-50
2022/07/27 05:01:11;;;;;;;;;;;27.70;92.30;;;;;;5024124;28;19913;-51
2022/07/27 05:03:38;;;;;;;;;;;27.70;92.30;;;;;;5023781;28;20128;-54
2022/07/27 05:06:04;;;;;;;;;;;27.70;92.20;;;;;;5024099;28;19923;-51
2022/07/27 05:08:30;;;;;;;;;;;27.70;92.10;;;;;;5023546;28;20149;-53
2022/07/27 05:10:56;;;;;;;;;;;27.70;92.10;;;;;;5023724;28;19988;-51
2022/07/27 05:13:23;;;;;;;;;;;27.70;92.00;;;;;;5023454;28;19906;-49
2022/07/27 05:15:49;;;;;;;;;;;27.70;92.00;;;;;;5023729;28;20102;-53
2022/07/27 05:18:15;;;;;;;;;;;27.70;91.90;;;;;;5023489;28;19909;-51
2022/07/27 05:20:41;;;;;;;;;;;27.70;91.70;;;;;;5023742;28;19969;-52
2022/07/27 05:23:07;;;;;;;;;;;27.60;91.60;;;;;;5023332;28;19909;-53
2022/07/27 05:25:33;;;;;;;;;;;27.60;91.60;;;;;;5023620;28;19952;-51
2022/07/27 05:27:59;;;;;;;;;;;27.60;91.60;;;;;;5022365;28;19909;-52
2022/07/27 05:30:26;;;;;;;;;;;27.60;91.60;;;;;;5023291;28;20221;-49
2022/07/27 05:32:52;;;;;;;;;;;27.60;91.40;;;;;;5023454;28;20193;-47
2022/07/27 05:35:19;;;;;;;;;;;27.50;91.50;;;;;;5023149;28;19985;-50
2022/07/27 05:37:45;;;;;;;;;;;27.50;91.50;;;;;;5023386;28;19909;-51
2022/07/27 05:40:11;;;;;;;;;;;27.50;91.60;;;;;;5023181;28;20126;-47
2022/07/27 05:42:40;;;;;;;;;;;27.50;91.40;;;;;;5023353;28;19916;-53
2022/07/27 05:45:06;;;;;;;;;;;27.50;91.50;;;;;;5023009;28;19905;-46
2022/07/27 05:47:32;;;;;;;;;;;27.50;91.50;;;;;;5023180;28;19939;-46
2022/07/27 05:49:59;;;;;;;;;;;27.50;91.50;;;;;;5023054;28;20007;-46
2022/07/27 05:52:25;;;;;;;;;;;27.40;91.40;;;;;;5023041;28;19917;-50
2022/07/27 05:54:51;;;;;;;;;;;27.40;91.30;;;;;;5022923;28;19984;-50
2022/07/27 05:57:17;;;;;;;;;;;27.40;91.20;;;;;;5023159;28;19941;-47
2022/07/27 05:59:43;;;;;;;;;;;27.40;91.30;;;;;;5022937;28;20194;-49
2022/07/27 06:02:09;;;;;;;;;;;27.40;91.20;;;;;;5023451;28;19918;-47
2022/07/27 06:04:36;;;;;;;;;;;27.40;91.20;;;;;;5022837;28;19917;-52
2022/07/27 06:09:47;;;;;;;;;;;27.30;91.30;;;;;;5022860;28;19948;-45
2022/07/27 06:12:13;;;;;;;;;;;27.40;91.30;;;;;;5022798;28;20193;-45
2022/07/27 06:14:39;;;;;;;;;;;27.40;91.30;;;;;;5022547;28;19954;-45
2022/07/27 06:17:06;;;;;;;;;;;27.40;91.40;;;;;;5023303;28;19917;-45
2022/07/27 06:19:32;;;;;;;;;;;27.30;91.50;;;;;;5022518;28;20109;-46
2022/07/27 06:21:58;;;;;;;;;;;27.30;91.60;;;;;;5023151;28;19909;-48
2022/07/27 06:24:24;;;;;;;;;;;27.30;91.60;;;;;;5022502;28;19970;-46
2022/07/27 06:26:51;;;;;;;;;;;27.30;91.70;;;;;;5023105;28;20207;-48
2022/07/27 06:29:17;;;;;;;;;;;27.30;91.70;;;;;;5022347;28;20225;-48
2022/07/27 06:31:43;;;;;;;;;;;27.30;91.80;;;;;;5023025;28;19914;-46
2022/07/27 06:34:09;;;;;;;;;;;27.30;91.90;;;;;;5022353;28;20102;-47
2022/07/27 06:36:38;;;;;;;;;;;27.30;91.90;;;;;;5022828;28;20182;-49
2022/07/27 06:39:04;;;;;;;;;;;27.20;91.80;;;;;;5021926;28;19910;-50
2022/07/27 06:41:32;;;;;;;;;;;27.20;91.80;;;;;;5022684;28;19917;-46
2022/07/27 06:43:59;;;;;;;;;;;27.30;91.90;;;;;;5022181;28;19932;-46
2022/07/27 06:46:25;;;;;;;;;;;27.20;91.90;;;;;;5022767;28;20102;-47
2022/07/27 06:48:52;;;;;;;;;;;27.20;92.00;;;;;;5022141;28;20198;-49
2022/07/27 06:51:18;;;;;;;;;;;27.20;92.00;;;;;;5022520;28;19910;-51
2022/07/27 06:53:44;;;;;;;;;;;27.20;92.10;;;;;;5021940;28;19915;-47
2022/07/27 06:56:10;;;;;;;;;;;27.20;92.20;;;;;;5021943;28;20225;-50
2022/07/27 06:58:36;;;;;;;;;;;27.20;92.20;;;;;;5022118;28;19909;-48
2022/07/27 07:01:03;;;;;;;;;;;27.20;92.30;;;;;;5022284;28;19910;-53
2022/07/27 07:03:29;;;;;;;;;;;27.20;92.30;;;;;;5021682;28;19977;-48
2022/07/27 07:05:55;;;;;;;;;;;27.10;92.30;;;;;;5022274;28;19975;-52
2022/07/27 07:08:22;;;;;;;;;;;27.10;92.40;;;;;;5021863;28;19985;-49
2022/07/27 07:10:49;;;;;;;;;;;27.00;92.40;;;;;;5022367;28;20189;-49
2022/07/27 07:13:15;;;;;;;;;;;27.10;92.50;;;;;;5021738;28;19946;-49
2022/07/27 07:15:42;;;;;;;;;;;27.00;92.50;;;;;;5021968;28;19925;-46
2022/07/27 07:18:09;;;;;;;;;;;27.00;92.40;;;;;;5021769;28;19977;-49
2022/07/27 07:20:36;;;;;;;;;;;27.00;92.40;;;;;;5021965;28;19914;-46
2022/07/27 07:23:03;;;;;;;;;;;27.00;92.40;;;;;;5021781;28;19906;-45
2022/07/27 07:25:29;;;;;;;;;;;27.00;92.30;;;;;;5021669;28;19977;-52
2022/07/27 07:27:56;;;;;;;;;;;27.00;92.30;;;;;;5021824;28;19937;-47
2022/07/27 07:30:22;;;;;;;;;;;26.90;92.20;;;;;;5021733;28;19955;-54
2022/07/27 07:32:49;;;;;;;;;;;26.90;92.10;;;;;;5021842;28;19951;-47
2022/07/27 07:35:15;;;;;;;;;;;26.90;92.10;;;;;;5021600;28;19917;-50
2022/07/27 07:37:42;;;;;;;;;;;26.90;92.20;;;;;;5021608;28;19949;-53
2022/07/27 07:40:09;;;;;;;;;;;26.90;92.20;;;;;;5021586;28;19906;-49
2022/07/27 07:42:55;;;;;;;;;;;26.90;92.20;;;;;;5021505;28;19912;-53
2022/07/27 07:45:22;;;;;;;;;;;26.90;92.30;;;;;;5021387;28;19929;-46
2022/07/27 07:47:49;;;;;;;;;;;26.90;92.30;;;;;;5021392;28;19905;-52
2022/07/27 07:50:15;;;;;;;;;;;26.90;92.20;;;;;;5021389;28;19985;-47
2022/07/27 07:52:41;;;;;;;;;;;26.90;92.20;;;;;;5023992;28;19914;-45
2022/07/27 07:55:08;;;;;;;;;;;26.90;92.10;;;;;;5024775;28;19981;-46
2022/07/27 07:57:34;;;;;;;;;;;26.90;92.10;;;;;;5024858;28;19905;-46
2022/07/27 08:00:00;;;;;;;;;;;26.80;92.10;;;;;;5023927;28;19951;-53
2022/07/27 08:02:26;;;;;;;;;;;26.90;92.10;;;;;;5024712;28;19929;-46
2022/07/27 08:04:53;;;;;;;;;;;26.90;92.10;;;;;;5024504;28;19917;-46
2022/07/27 08:07:19;;;;;;;;;;;26.80;92.20;;;;;;5024517;28;20109;-45
2022/07/27 08:09:45;;;;;;;;;;;26.80;92.10;;;;;;5024786;28;19912;-50
2022/07/27 08:12:11;;;;;;;;;;;26.80;92.10;;;;;;5025157;28;19914;-45
2022/07/27 08:14:37;;;;;;;;;;;26.80;92.10;;;;;;5024420;28;20250;-47
2022/07/27 08:17:03;;;;;;;;;;;26.80;92.20;;;;;;5024974;28;20089;-45
2022/07/27 08:19:29;;;;;;;;;;;26.80;92.20;;;;;;5024497;28;20244;-46
2022/07/27 08:21:55;;;;;;;;;;;26.80;92.10;;;;;;5024746;28;19910;-48
2022/07/27 08:24:21;;;;;;;;;;;26.80;92.10;;;;;;5024544;28;19913;-47
2022/07/27 08:26:48;;;;;;;;;;;26.80;92.10;;;;;;5024897;28;19997;-49
2022/07/27 08:29:14;;;;;;;;;;;26.80;92.10;;;;;;5024305;28;19941;-48
2022/07/27 08:31:40;;;;;;;;;;;26.80;92.10;;;;;;5023373;28;20128;-50
2022/07/27 08:34:06;;;;;;;;;;;26.80;92.10;;;;;;5024208;28;19909;-50
2022/07/27 08:36:32;;;;;;;;;;;26.80;92.10;;;;;;5024683;28;19910;-51
2022/07/27 08:39:03;;;;;;;;;;;26.80;92.10;;;;;;5024150;28;19968;-47
2022/07/27 08:41:29;;;;;;;;;;;26.80;92.10;;;;;;5024556;28;19910;-53
2022/07/27 08:43:56;;;;;;;;;;;26.80;92.10;;;;;;5024167;28;19932;-49
2022/07/27 08:46:25;;;;;;;;;;;26.70;92.00;;;;;;5024460;28;19984;-47
2022/07/27 08:48:51;;;;;;;;;;;26.70;92.00;;;;;;5024067;28;19945;-48
2022/07/27 08:51:18;;;;;;;;;;;26.70;92.00;;;;;;5024246;28;19918;-45
2022/07/27 08:53:45;;;;;;;;;;;26.70;92.00;;;;;;5024058;28;19959;-48
2022/07/27 08:56:12;;;;;;;;;;;26.70;92.00;;;;;;5024175;28;20185;-49
2022/07/27 08:58:38;;;;;;;;;;;26.70;92.00;;;;;;5023958;28;19916;-51
2022/07/27 09:01:04;;;;;;;;;;;26.60;92.00;;;;;;5023914;28;19952;-51
2022/07/27 09:03:30;;;;;;;;;;;26.70;92.00;;;;;;5023496;28;19910;-48
2022/07/27 09:05:57;;;;;;;;;;;26.70;92.00;;;;;;5023928;28;19917;-48
2022/07/27 09:08:25;;;;;;;;;;;26.70;92.00;;;;;;5023564;28;19976;-50
2022/07/27 09:10:55;;;;;;;;;;;26.60;91.90;;;;;;5023885;28;19913;-49
2022/07/27 09:13:25;;;;;;;;;;;26.60;91.80;;;;;;5023781;28;19906;-47
2022/07/27 09:15:55;;;;;;;;;;;26.60;91.80;;;;;;5023692;28;20220;-53
2022/07/27 09:18:23;;;;;;;;;;;26.60;91.90;;;;;;5023692;28;19905;-49
2022/07/27 09:21:09;;;;;;;;;;;26.60;91.80;;;;;;5023623;28;19914;-47
2022/07/27 09:23:35;;;;;;;;;;;26.60;91.90;;;;;;5023542;28;19912;-47
2022/07/27 09:26:12;;;;;;;;;;;26.60;91.80;;;;;;5023361;28;20109;-51
2022/07/27 09:28:38;;;;;;;;;;;26.60;91.80;;;;;;5023498;28;19912;-51
2022/07/27 09:31:11;;;;;;;;;;;26.60;91.80;;;;;;5023615;28;19921;-46
2022/07/27 09:33:44;;;;;;;;;;;26.60;91.80;;;;;;5023332;28;19963;-51
2022/07/27 09:36:11;;;;;;;;;;;26.60;91.70;;;;;;5023588;28;19921;-47
2022/07/27 09:38:37;;;;;;;;;;;26.60;91.70;;;;;;5023349;28;19912;-53
2022/07/27 09:41:05;;;;;;;;;;;26.60;91.80;;;;;;5023362;28;20190;-47
2022/07/27 09:43:43;;;;;;;;;;;26.60;91.70;;;;;;5023223;28;20209;-45
2022/07/27 09:46:09;;;;;;;;;;;26.60;91.80;;;;;;5023365;28;19920;-47
2022/07/27 09:48:35;;;;;;;;;;;26.60;91.90;;;;;;5023119;28;19972;-51
2022/07/27 09:51:04;;;;;;;;;;;26.60;92.00;;;;;;5023283;28;19921;-54
2022/07/27 09:53:31;;;;;;;;;;;26.60;91.90;;;;;;5022878;28;19943;-52
2022/07/27 09:56:01;;;;;;;;;;;26.60;92.00;;;;;;5023235;28;19921;-48
2022/07/27 09:58:48;;;;;;;;;;;26.60;92.10;;;;;;5023038;28;19912;-49
2022/07/27 10:01:17;;;;;;;;;;;26.60;92.00;;;;;;5023029;28;19914;-46
2022/07/27 10:03:44;;;;;;;;;;;26.60;92.00;;;;;;5023004;28;19913;-46
2022/07/27 10:06:11;;;;;;;;;;;26.60;92.10;;;;;;5023026;28;20113;-45
2022/07/27 10:08:38;;;;;;;;;;;26.60;92.10;;;;;;5022907;28;20224;-49
2022/07/27 10:11:05;;;;;;;;;;;26.60;92.10;;;;;;5022765;28;20202;-47
2022/07/27 10:13:31;;;;;;;;;;;26.50;92.10;;;;;;5022672;28;20181;-51
2022/07/27 10:15:58;;;;;;;;;;;26.50;92.20;;;;;;5022575;28;19924;-45
2022/07/27 10:18:47;;;;;;;;;;;26.60;92.20;;;;;;5022770;28;19905;-54
2022/07/27 10:21:14;;;;;;;;;;;26.50;92.30;;;;;;5030394;28;19914;-50
2022/07/27 10:23:52;;;;;;;;;;;26.50;92.30;;;;;;5022639;28;19981;-52
2022/07/27 10:26:20;;;;;;;;;;;26.50;92.30;;;;;;5022782;28;19977;-47
2022/07/27 10:28:55;;;;;;;;;;;26.50;92.30;;;;;;5022446;28;20186;-44
2022/07/27 10:31:22;;;;;;;;;;;26.50;92.20;;;;;;5022708;28;19945;-46
2022/07/27 10:33:50;;;;;;;;;;;26.60;92.30;;;;;;5022628;28;19912;-47
2022/07/27 10:36:36;;;;;;;;;;;26.50;92.20;;;;;;5022702;28;19959;-54
2022/07/27 10:39:04;;;;;;;;;;;26.50;92.30;;;;;;5022820;28;19905;-45
2022/07/27 10:41:34;;;;;;;;;;;26.40;92.40;;;;;;5022858;28;19914;-50
2022/07/27 10:44:16;;;;;;;;;;;26.50;92.40;;;;;;5022358;28;19913;-54
2022/07/27 10:46:45;;;;;;;;;;;26.50;92.60;;;;;;5022719;28;19954;-49
2022/07/27 10:49:22;;;;;;;;;;;26.50;92.30;;;;;;5021254;28;19950;-48
2022/07/27 10:51:57;;;;;;;;;;;26.40;92.30;;;;;;5023328;28;19984;-48
2022/07/27 10:54:25;;;;;;;;;;;26.50;92.20;;;;;;5022565;28;19988;-56
2022/07/27 10:56:55;;;;;;;;;;;26.50;92.30;;;;;;5022277;28;20020;-55
2022/07/27 10:59:33;;;;;;;;;;;26.50;92.40;;;;;;5022471;28;19912;-48
2022/07/27 11:01:59;;;;;;;;;;;26.50;92.40;;;;;;5022735;28;20205;-52
2022/07/27 11:04:26;;;;;;;;;;;26.40;92.30;;;;;;5021976;28;19926;-54
2022/07/27 11:06:55;;;;;;;;;;;26.40;92.30;;;;;;5022471;28;19914;-53
2022/07/27 11:09:21;;;;;;;;;;;26.50;92.20;;;;;;5021910;28;19905;-54
2022/07/27 11:11:48;;;;;;;;;;;26.50;92.40;;;;;;5022213;28;20102;-53
2022/07/27 11:14:18;;;;;;;;;;;26.40;92.50;;;;;;5021814;28;19905;-46
2022/07/27 11:16:44;;;;;;;;;;;26.40;92.40;;;;;;5022279;28;19917;-55
2022/07/27 11:19:10;;;;;;;;;;;26.50;92.40;;;;;;5021858;28;19976;-51
2022/07/27 11:21:37;;;;;;;;;;;26.50;92.30;;;;;;5022149;28;20101;-49
2022/07/27 11:24:22;;;;;;;;;;;26.50;92.20;;;;;;5021747;28;19909;-47
2022/07/27 11:26:51;;;;;;;;;;;26.50;92.30;;;;;;5020965;28;19910;-46
2022/07/27 11:29:19;;;;;;;;;;;26.50;92.20;;;;;;5021560;28;20117;-52
2022/07/27 11:31:46;;;;;;;;;;;26.50;92.10;;;;;;5022095;28;20067;-47
2022/07/27 11:34:16;;;;;;;;;;;26.50;92.00;;;;;;5021545;28;19909;-48
2022/07/27 11:36:44;;;;;;;;;;;26.50;92.00;;;;;;5021784;28;19910;-45
2022/07/27 11:39:15;;;;;;;;;;;26.60;92.00;;;;;;5021703;28;19918;-49
2022/07/27 11:41:42;;;;;;;;;;;26.60;91.90;;;;;;5021914;28;19910;-46
2022/07/27 11:44:10;;;;;;;;;;;26.60;91.80;;;;;;5021339;28;19951;-49
2022/07/27 11:46:43;;;;;;;;;;;26.60;91.80;;;;;;5021761;28;19910;-49
2022/07/27 11:49:09;;;;;;;;;;;26.60;91.80;;;;;;5021272;28;19910;-54
2022/07/27 11:51:40;;;;;;;;;;;26.60;91.80;;;;;;5021738;28;19910;-52
2022/07/27 11:54:08;;;;;;;;;;;26.60;91.80;;;;;;5021152;28;20224;-46
2022/07/27 11:56:35;;;;;;;;;;;26.70;91.80;;;;;;5021431;28;19910;-45
2022/07/27 11:59:04;;;;;;;;;;;26.70;91.90;;;;;;5021397;28;19964;-51
2022/07/27 12:01:32;;;;;;;;;;;26.70;91.90;;;;;;5021691;28;19916;-48
2022/07/27 12:04:02;;;;;;;;;;;26.70;91.90;;;;;;5021137;28;19958;-49
2022/07/27 12:06:30;;;;;;;;;;;26.80;91.90;;;;;;5021167;28;19919;-47
2022/07/27 12:08:56;;;;;;;;;;;26.80;91.90;;;;;;5020686;28;20097;-49
2022/07/27 12:11:29;;;;;;;;;;;26.80;91.90;;;;;;5021022;28;19913;-46
2022/07/27 12:13:58;;;;;;;;;;;26.80;92.00;;;;;;5021229;28;19906;-47
2022/07/27 12:16:30;;;;;;;;;;;26.80;91.90;;;;;;5021362;28;20087;-48
2022/07/27 12:18:56;;;;;;;;;;;26.80;91.80;;;;;;5020216;28;19905;-49
2022/07/27 12:21:22;;;;;;;;;;;26.80;91.90;;;;;;5020335;28;19920;-53
2022/07/27 12:23:50;;;;;;;;;;;26.80;91.90;;;;;;5020930;28;19909;-49
2022/07/27 12:26:17;;;;;;;;;;;26.90;92.00;;;;;;5019928;28;19920;-47
2022/07/27 12:28:44;;;;;;;;;;;26.90;92.00;;;;;;5020020;28;19929;-48
2022/07/27 12:31:17;;;;;;;;;;;26.90;92.20;;;;;;5021189;28;19918;-49
2022/07/27 12:33:44;;;;;;;;;;;26.90;92.10;;;;;;5020686;28;20260;-49
2022/07/27 12:36:10;;;;;;;;;;;26.90;92.30;;;;;;5021142;28;19978;-53
2022/07/27 12:38:37;;;;;;;;;;;26.90;92.30;;;;;;5023307;28;20209;-46
2022/07/27 12:41:03;;;;;;;;;;;26.90;92.30;;;;;;5024324;28;19913;-47
2022/07/27 12:43:29;;;;;;;;;;;26.90;92.20;;;;;;5024132;28;19945;-50
2022/07/27 12:45:55;;;;;;;;;;;26.90;92.10;;;;;;5024228;28;19920;-49
2022/07/27 12:48:24;;;;;;;;;;;26.90;92.20;;;;;;5024249;28;19906;-50
2022/07/27 12:51:03;;;;;;;;;;;26.90;92.10;;;;;;5024037;28;20070;-47
2022/07/27 12:53:30;;;;;;;;;;;26.90;92.10;;;;;;5023770;28;19906;-48
2022/07/27 12:55:57;;;;;;;;;;;27.00;92.20;;;;;;5023989;28;20152;-48
2022/07/27 12:58:24;;;;;;;;;;;26.90;92.10;;;;;;5023937;28;19913;-50
2022/07/27 13:00:50;;;;;;;;;;;26.90;92.10;;;;;;5022861;28;19913;-47
2022/07/27 13:03:16;;;;;;;;;;;27.00;92.20;;;;;;5024142;28;19943;-52
2022/07/27 13:05:43;;;;;;;;;;;27.00;92.20;;;;;;5023754;28;19922;-46
2022/07/27 13:08:10;;;;;;;;;;;27.00;92.20;;;;;;5023703;28;19909;-46
2022/07/27 13:10:36;;;;;;;;;;;27.00;92.20;;;;;;5023966;28;19913;-48
2022/07/27 13:13:06;;;;;;;;;;;27.00;92.30;;;;;;5023672;28;19944;-47
2022/07/27 13:15:33;;;;;;;;;;;27.10;92.30;;;;;;5023463;28;20142;-46
2022/07/27 13:17:59;;;;;;;;;;;27.00;92.40;;;;;;5023326;28;19909;-49
2022/07/27 13:20:25;;;;;;;;;;;27.10;92.60;;;;;;5023221;28;19921;-46
2022/07/27 13:22:52;;;;;;;;;;;27.10;92.60;;;;;;5023147;28;19927;-52
2022/07/27 13:25:18;;;;;;;;;;;27.10;92.60;;;;;;5023440;28;19925;-47
2022/07/27 13:27:45;;;;;;;;;;;27.10;92.70;;;;;;5023522;28;20164;-45
2022/07/27 13:30:12;;;;;;;;;;;27.10;92.60;;;;;;5023666;28;20181;-48
2022/07/27 13:32:38;;;;;;;;;;;27.10;92.60;;;;;;5023354;28;19905;-50
2022/07/27 13:35:06;;;;;;;;;;;27.20;92.60;;;;;;5023260;28;19913;-48
2022/07/27 13:37:32;;;;;;;;;;;27.20;92.60;;;;;;5023817;28;19906;-45
2022/07/27 13:39:58;;;;;;;;;;;27.20;92.50;;;;;;5023110;28;19959;-52
2022/07/27 13:42:25;;;;;;;;;;;27.20;92.50;;;;;;5023304;28;19905;-55
2022/07/27 13:44:51;;;;;;;;;;;27.20;92.40;;;;;;5023305;28;19906;-48
2022/07/27 13:47:17;;;;;;;;;;;27.20;92.30;;;;;;5023008;28;19913;-48
2022/07/27 13:49:44;;;;;;;;;;;27.30;92.30;;;;;;5020034;28;19931;-48
2022/07/27 13:52:13;;;;;;;;;;;27.30;92.30;;;;;;5023398;28;19949;-50
2022/07/27 13:54:40;;;;;;;;;;;27.30;92.10;;;;;;5022999;28;19915;-47
2022/07/27 13:57:06;;;;;;;;;;;27.30;92.00;;;;;;5023499;28;19921;-47
2022/07/27 13:59:32;;;;;;;;;;;27.30;92.00;;;;;;5023142;28;19937;-46
2022/07/27 14:01:58;;;;;;;;;;;27.30;92.00;;;;;;5023313;28;19913;-50
2022/07/27 14:04:25;;;;;;;;;;;27.40;92.10;;;;;;5022916;28;20215;-51
2022/07/27 14:06:51;;;;;;;;;;;27.40;92.10;;;;;;5023412;28;20208;-51
2022/07/27 14:09:17;;;;;;;;;;;27.40;92.10;;;;;;5022990;28;19905;-47
2022/07/27 14:11:43;;;;;;;;;;;27.40;91.90;;;;;;5023341;28;19913;-47
2022/07/27 14:14:09;;;;;;;;;;;27.40;91.90;;;;;;5023140;28;19906;-56
2022/07/27 14:16:37;;;;;;;;;;;27.40;92.00;;;;;;5023323;28;19921;-50
2022/07/27 14:19:04;;;;;;;;;;;27.40;92.00;;;;;;5022830;28;19906;-47